LFBY/XDA METAR and TAF weather

Enter ICAO airport designator
Station Type Date Time Source
LFBY METAR 2020/04/05 20:00 UTC NOAA

LFBY 052000Z AUTO 15003KT 9999 // ////// 19/06 Q1013


Station Type Date Time Source
LFBY Decoded METAR 2020/04/05 20:00 UTC NOAA

Dax, France (LFBY) 43-41N 001-04W 32M
Apr 05, 2020 - 04:00 PM EDT / 2020.04.05 2000 UTC
Wind: from the SSE (150 degrees) at 3 MPH (3 KT):0
Visibility: greater than 7 mile(s):0
Temperature: 66 F (19 C)
Dew Point: 42 F (6 C)
Relative Humidity: 42%
Pressure (altimeter): 29.91 in. Hg (1013 hPa)
ob: LFBY 052000Z AUTO 15003KT 9999 // ////// 19/06 Q1013
cycle: 20

Station Type Date Time Source
LFBY TAF UTC NOAA

Error!

Example: see airport list